Time;durP1;ratioP1;P1;durP2;ratioP2;P2;SDS_P1;SDS_P2;PMS_P1;PMS_P2;Temp;Humidity;BMP_temperature;BMP_pressure;BME280_temperature;BME280_humidity;BME280_pressure;Samples;Min_cycle;Max_cycle;Signal;HPM_P1;HPM_P2
2020/12/13 00:01:12;;;;;;;1999.90;999.90;;;2.50;99.90;;;;;;5042682;28;20469;-51
2020/12/13 00:03:38;;;;;;;1999.90;999.90;;;2.50;99.90;;;;;;5032589;28;20467;-51
2020/12/13 00:06:04;;;;;;;1999.90;999.90;;;2.60;99.90;;;;;;5031651;28;20440;-51
2020/12/13 00:08:29;;;;;;;1999.90;999.90;;;2.60;99.90;;;;;;5045934;28;20208;-50
2020/12/13 00:10:56;;;;;;;1999.90;999.90;;;2.70;99.90;;;;;;5030508;28;20190;-50
2020/12/13 00:13:23;;;;;;;1999.90;999.90;;;2.70;99.90;;;;;;5031134;28;20781;-50
2020/12/13 00:15:48;;;;;;;1999.90;999.90;;;2.70;99.90;;;;;;5036432;28;20858;-50
2020/12/13 00:18:14;;;;;;;1999.90;999.90;;;2.70;99.90;;;;;;5051162;28;20423;-51
2020/12/13 07:27:22;;;;;;;1999.90;999.90;;;3.00;99.90;;;;;;5127249;27;20566;-51
2020/12/13 07:29:47;;;;;;;1999.90;999.90;;;3.00;99.90;;;;;;5107997;28;20429;-53
2020/12/13 07:32:13;;;;;;;1999.90;999.90;;;3.00;99.90;;;;;;5106903;28;21196;-51
2020/12/13 07:34:38;;;;;;;1999.90;999.90;;;3.10;99.90;;;;;;5106732;28;20191;-52
2020/12/13 07:37:04;;;;;;;1999.90;999.90;;;3.20;99.90;;;;;;5107016;28;20179;-51
2020/12/13 07:39:30;;;;;;;1999.90;999.90;;;3.20;99.90;;;;;;5106499;28;20215;-52
2020/12/13 07:41:55;;;;;;;1999.90;999.90;;;3.30;99.90;;;;;;5106692;28;20184;-52
2020/12/13 07:44:21;;;;;;;1999.90;999.90;;;3.30;99.90;;;;;;5107589;28;20176;-51
2020/12/13 07:46:47;;;;;;;1999.90;999.90;;;3.30;99.90;;;;;;5107433;28;20689;-52
2020/12/13 07:49:18;;;;;;;1999.90;999.90;;;3.40;99.90;;;;;;5106137;28;20735;-52
2020/12/13 07:51:46;;;;;;;1999.90;999.90;;;3.60;99.90;;;;;;5100265;28;20182;-51
2020/12/13 07:54:12;;;;;;;1999.90;999.90;;;3.70;99.90;;;;;;5103796;28;20896;-52
2020/12/13 07:56:38;;;;;;;1999.90;999.90;;;3.70;99.90;;;;;;5099801;28;21274;-52
2020/12/13 07:59:11;;;;;;;1999.90;999.90;;;3.80;99.90;;;;;;5108064;28;20433;-52
2020/12/13 08:01:37;;;;;;;1999.90;999.90;;;3.80;99.90;;;;;;5106306;28;20428;-52
2020/12/13 08:04:03;;;;;;;1999.90;999.90;;;3.70;99.90;;;;;;5103268;28;20966;-54
2020/12/13 08:06:29;;;;;;;1999.90;999.90;;;3.80;99.90;;;;;;5105260;28;20476;-51
2020/12/13 08:08:55;;;;;;;1999.90;999.90;;;3.80;99.90;;;;;;5106096;28;20436;-51
2020/12/13 08:11:21;;;;;;;1999.90;999.90;;;3.90;99.90;;;;;;5105200;28;20178;-51
2020/12/13 08:13:48;;;;;;;1999.90;999.90;;;3.90;99.90;;;;;;5104293;28;20445;-51
2020/12/13 08:16:15;;;;;;;1999.90;999.90;;;3.90;99.90;;;;;;5104618;28;20452;-51
2020/12/13 08:18:45;;;;;;;1999.90;999.90;;;3.80;99.90;;;;;;5103528;28;20435;-51
2020/12/13 08:21:15;;;;;;;1999.90;999.90;;;3.90;99.90;;;;;;5105336;28;20504;-52
2020/12/13 08:23:42;;;;;;;1999.90;999.90;;;3.90;99.90;;;;;;5107370;28;20449;-51
2020/12/13 08:26:09;;;;;;;1999.90;999.90;;;3.90;99.90;;;;;;5105463;28;20479;-51
2020/12/13 08:28:37;;;;;;;1999.90;999.90;;;3.90;99.90;;;;;;5105395;28;20449;-51
2020/12/13 08:31:06;;;;;;;1999.90;999.90;;;3.90;99.90;;;;;;5106392;28;20468;-52
2020/12/13 08:33:32;;;;;;;1999.90;999.90;;;3.90;99.90;;;;;;5107161;28;20456;-51
2020/12/13 08:35:57;;;;;;;1999.90;999.90;;;4.00;99.90;;;;;;5106549;28;20442;-51
2020/12/13 08:38:23;;;;;;;1999.90;999.90;;;4.00;99.90;;;;;;5095286;28;20177;-52
2020/12/13 08:40:49;;;;;;;1999.90;999.90;;;4.10;99.90;;;;;;5091528;28;20216;-52
2020/12/13 08:43:19;;;;;;;1999.90;999.90;;;4.30;99.90;;;;;;5108276;28;20462;-53
2020/12/13 08:45:55;;;;;;;1999.90;999.90;;;4.40;99.90;;;;;;5104012;28;20227;-52
2020/12/13 08:48:28;;;;;;;1999.90;999.90;;;4.50;99.90;;;;;;5090783;28;20434;-51
2020/12/13 08:51:07;;;;;;;1999.90;999.90;;;4.50;99.90;;;;;;5084821;28;20441;-51
2020/12/13 08:53:33;;;;;;;1999.90;999.90;;;4.30;99.90;;;;;;5085268;28;20447;-51
2020/12/13 08:56:02;;;;;;;1999.90;999.90;;;4.30;99.90;;;;;;5082339;28;20521;-52
2020/12/13 08:58:28;;;;;;;1999.90;999.90;;;4.40;99.90;;;;;;5092395;28;20257;-52
2020/12/13 09:01:04;;;;;;;1999.90;999.90;;;4.30;99.90;;;;;;5088766;28;20490;-51
2020/12/13 09:03:30;;;;;;;1999.90;999.90;;;4.30;99.90;;;;;;5086719;28;20571;-51
2020/12/13 09:05:55;;;;;;;1999.90;999.90;;;4.40;99.90;;;;;;5084891;28;20473;-53
2020/12/13 09:08:22;;;;;;;1999.90;999.90;;;4.60;99.90;;;;;;5088321;28;20184;-52
2020/12/13 09:10:49;;;;;;;1999.90;999.90;;;4.60;99.90;;;;;;5088614;28;20177;-53
2020/12/13 15:41:15;;;;;;;1999.90;999.90;;;5.80;99.90;;;;;;5060125;28;20615;-51
2020/12/13 15:43:41;;;;;;;1999.90;999.90;;;5.80;99.90;;;;;;5039084;28;20549;-49
2020/12/13 15:46:07;;;;;;;1999.90;999.90;;;5.80;99.90;;;;;;5043533;28;20194;-50
2020/12/13 15:48:32;;;;;;;1999.90;999.90;;;5.80;99.90;;;;;;5042314;28;20187;-50
2020/12/13 15:50:58;;;;;;;1999.90;999.90;;;5.80;99.90;;;;;;5040083;28;20239;-50
2020/12/13 15:53:24;;;;;;;1999.90;999.90;;;5.80;99.90;;;;;;5043394;28;20209;-50
2020/12/13 15:55:52;;;;;;;1999.90;999.90;;;5.80;99.90;;;;;;5041560;28;20298;-49
2020/12/13 15:58:19;;;;;;;1999.90;999.90;;;5.80;99.90;;;;;;5041640;28;20436;-49
2020/12/13 16:00:45;;;;;;;1999.90;999.90;;;5.70;99.90;;;;;;5038845;28;20469;-51
2020/12/13 16:03:11;;;;;;;1999.90;999.90;;;5.80;99.90;;;;;;5040202;28;20483;-49
2020/12/13 16:05:37;;;;;;;1999.90;999.90;;;5.80;99.90;;;;;;5039801;28;20326;-49
2020/12/13 16:08:05;;;;;;;1999.90;999.90;;;5.90;99.90;;;;;;5040832;28;20178;-51
2020/12/13 16:10:30;;;;;;;1999.90;999.90;;;5.80;99.90;;;;;;5041505;28;20425;-50
2020/12/13 16:13:03;;;;;;;1999.90;999.90;;;5.90;99.90;;;;;;5038752;28;20459;-49
2020/12/13 16:15:36;;;;;;;1999.90;999.90;;;5.80;99.90;;;;;;5040682;28;20217;-48
2020/12/13 16:18:05;;;;;;;1999.90;999.90;;;5.80;99.90;;;;;;5039644;28;20504;-49
2020/12/13 16:20:31;;;;;;;1999.90;999.90;;;5.80;99.90;;;;;;5039869;28;20527;-48
2020/12/13 16:22:58;;;;;;;1999.90;999.90;;;5.70;99.90;;;;;;5040274;28;20467;-49
2020/12/13 16:25:28;;;;;;;1999.90;999.90;;;5.80;99.90;;;;;;5041482;28;20445;-49
2020/12/13 16:27:54;;;;;;;1999.90;999.90;;;5.80;99.90;;;;;;5038927;28;20438;-50
2020/12/13 16:30:22;;;;;;;1999.90;999.90;;;5.80;99.90;;;;;;5041397;28;20933;-50
2020/12/13 16:32:48;;;;;;;1999.90;999.90;;;5.80;99.90;;;;;;5041345;28;20458;-50
2020/12/13 16:35:15;;;;;;;1999.90;999.90;;;5.70;99.90;;;;;;5041953;28;20945;-48
2020/12/13 16:37:41;;;;;;;1999.90;999.90;;;5.70;99.90;;;;;;5042270;28;20429;-51
2020/12/13 16:40:09;;;;;;;1999.90;999.90;;;5.70;99.90;;;;;;5041021;28;20478;-50
2020/12/13 16:42:42;;;;;;;1999.90;999.90;;;5.70;99.90;;;;;;5036499;28;20477;-49
2020/12/13 16:45:08;;;;;;;1999.90;999.90;;;5.70;99.90;;;;;;5039686;28;20448;-49
2020/12/13 16:47:45;;;;;;;1999.90;999.90;;;5.70;99.90;;;;;;5040876;28;20416;-49
2020/12/13 16:50:21;;;;;;;1999.90;999.90;;;5.70;99.90;;;;;;5042153;28;20189;-48
2020/12/13 16:55:31;;;;;;;1999.90;999.90;;;5.70;99.90;;;;;;5027829;28;20421;-49
2020/12/13 16:57:58;;;;;;;1999.90;999.90;;;5.70;99.90;;;;;;5028504;28;20441;-50
2020/12/13 17:00:25;;;;;;;1999.90;999.90;;;5.60;99.90;;;;;;5026180;28;20822;-49
2020/12/13 17:02:50;;;;;;;1999.90;999.90;;;5.60;99.90;;;;;;5026080;28;20437;-48
2020/12/13 17:05:17;;;;;;;1999.90;999.90;;;5.60;99.90;;;;;;5025739;28;20908;-49
2020/12/13 17:07:43;;;;;;;1999.90;999.90;;;5.60;99.90;;;;;;5028416;28;20191;-49
2020/12/13 17:10:09;;;;;;;1999.90;999.90;;;5.60;99.90;;;;;;5028678;28;20453;-49
2020/12/13 17:12:42;;;;;;;1999.90;999.90;;;5.60;99.90;;;;;;5027721;28;20466;-49
2020/12/13 17:15:13;;;;;;;1999.90;999.90;;;5.60;99.90;;;;;;5026382;28;20464;-49
2020/12/13 17:17:39;;;;;;;1999.90;999.90;;;5.50;99.90;;;;;;5028898;28;20465;-49
2020/12/13 17:20:08;;;;;;;1999.90;999.90;;;5.60;99.90;;;;;;5025393;28;20541;-50
2020/12/13 17:22:35;;;;;;;1999.90;999.90;;;5.60;99.90;;;;;;5028762;28;20291;-49
2020/12/13 17:25:01;;;;;;;1999.90;999.90;;;5.50;99.90;;;;;;5029673;28;20430;-50
2020/12/13 17:27:27;;;;;;;1999.90;999.90;;;5.60;99.90;;;;;;5028168;28;20481;-48
2020/12/13 17:29:53;;;;;;;1999.90;999.90;;;5.50;99.90;;;;;;5026680;28;20441;-50
2020/12/13 17:32:19;;;;;;;1999.90;999.90;;;5.50;99.90;;;;;;5021402;28;20290;-52
2020/12/13 17:34:46;;;;;;;1999.90;999.90;;;5.50;99.90;;;;;;5028429;28;20178;-49
2020/12/13 17:37:11;;;;;;;1999.90;999.90;;;5.60;99.90;;;;;;5022550;28;20196;-51
2020/12/13 17:39:37;;;;;;;1999.90;999.90;;;5.60;99.90;;;;;;5026181;28;20484;-49
2020/12/13 17:42:04;;;;;;;1999.90;999.90;;;5.50;99.90;;;;;;5023982;28;20758;-48
2020/12/13 17:44:34;;;;;;;1999.90;999.90;;;5.50;99.90;;;;;;5024457;28;20183;-49
2020/12/13 17:47:00;;;;;;;1999.90;999.90;;;5.60;99.90;;;;;;5024595;28;20532;-50
2020/12/13 17:49:27;;;;;;;1999.90;999.90;;;5.60;99.90;;;;;;5025099;28;20469;-50
2020/12/13 17:57:46;;;;;;;1999.90;999.90;;;5.60;99.90;;;;;;5025361;28;20812;-50
2020/12/13 18:00:18;;;;;;;1999.90;999.90;;;5.60;99.90;;;;;;5026661;28;20818;-50
2020/12/13 18:02:44;;;;;;;1999.90;999.90;;;5.60;99.90;;;;;;5037459;28;20460;-50
2020/12/13 18:05:14;;;;;;;1999.90;999.90;;;5.60;99.90;;;;;;5026534;28;20942;-51
2020/12/13 18:07:40;;;;;;;1999.90;999.90;;;5.60;99.90;;;;;;5031214;28;20441;-51
2020/12/13 18:10:07;;;;;;;1999.90;999.90;;;5.60;99.90;;;;;;5027294;28;20495;-50
2020/12/13 18:12:33;;;;;;;1999.90;999.90;;;5.60;99.90;;;;;;5009279;28;20477;-50
2020/12/13 18:15:10;;;;;;;1999.90;999.90;;;5.60;99.90;;;;;;5015475;28;20472;-51
2020/12/13 18:17:36;;;;;;;1999.90;999.90;;;5.60;99.90;;;;;;5024584;28;20663;-51
2020/12/13 18:20:04;;;;;;;1999.90;999.90;;;5.50;99.90;;;;;;5024782;28;20489;-50
2020/12/13 18:22:31;;;;;;;1999.90;999.90;;;5.50;99.90;;;;;;5028055;28;20457;-51
2020/12/13 18:24:57;;;;;;;1999.90;999.90;;;5.50;99.90;;;;;;5026781;28;20517;-51
2020/12/13 18:27:23;;;;;;;1999.90;999.90;;;5.60;99.90;;;;;;5026263;28;20446;-50
2020/12/13 18:29:49;;;;;;;1999.90;999.90;;;5.50;99.90;;;;;;5021981;28;20452;-50
2020/12/13 18:32:15;;;;;;;1999.90;999.90;;;5.50;99.90;;;;;;5026725;28;20468;-51
2020/12/13 18:34:41;;;;;;;1999.90;999.90;;;5.50;99.90;;;;;;5024791;28;20445;-50
2020/12/13 18:37:07;;;;;;;1999.90;999.90;;;5.40;99.90;;;;;;5028987;28;20437;-51
2020/12/13 18:39:33;;;;;;;1999.90;999.90;;;5.40;99.90;;;;;;5031961;28;20334;-50
2020/12/13 18:42:00;;;;;;;1999.90;999.90;;;5.40;99.90;;;;;;5026700;28;20532;-50
2020/12/13 18:44:26;;;;;;;1999.90;999.90;;;5.40;99.90;;;;;;5020516;28;20563;-50
2020/12/13 18:46:52;;;;;;;1999.90;999.90;;;5.40;99.90;;;;;;5025722;28;20443;-50
2020/12/13 18:49:18;;;;;;;1999.90;999.90;;;5.40;99.90;;;;;;5026830;28;20819;-50
2020/12/13 18:51:44;;;;;;;1999.90;999.90;;;5.40;99.90;;;;;;5023628;28;20437;-51
2020/12/13 18:54:10;;;;;;;1999.90;999.90;;;5.30;99.90;;;;;;5024868;28;20828;-50
2020/12/13 18:56:36;;;;;;;1999.90;999.90;;;5.30;99.90;;;;;;5023636;28;20420;-50
2020/12/13 18:59:01;;;;;;;1999.90;999.90;;;5.30;99.90;;;;;;5024020;28;21031;-50
2020/12/13 19:01:32;;;;;;;1999.90;999.90;;;5.30;99.90;;;;;;5025159;28;20824;-50
2020/12/13 19:06:39;;;;;;;1999.90;999.90;;;5.30;99.90;;;;;;5024409;28;20797;-50
2020/12/13 19:09:07;;;;;;;1999.90;999.90;;;5.30;99.90;;;;;;5023398;28;20981;-50
2020/12/13 19:11:32;;;;;;;1999.90;999.90;;;5.40;99.90;;;;;;5021791;28;20437;-50
2020/12/13 19:13:58;;;;;;;1999.90;999.90;;;5.50;99.90;;;;;;5027418;28;20434;-51
2020/12/13 19:16:24;;;;;;;1999.90;999.90;;;5.50;99.90;;;;;;5025556;28;20186;-51
2020/12/13 19:18:49;;;;;;;1999.90;999.90;;;5.40;99.90;;;;;;5026248;28;20179;-51
2020/12/13 19:21:15;;;;;;;1999.90;999.90;;;5.40;99.90;;;;;;5023991;28;20217;-51
2020/12/13 19:23:41;;;;;;;1999.90;999.90;;;5.40;99.90;;;;;;5026907;28;20747;-51
2020/12/13 19:26:07;;;;;;;1999.90;999.90;;;5.40;99.90;;;;;;5024344;28;20602;-50
2020/12/13 19:28:34;;;;;;;1999.90;999.90;;;5.40;99.90;;;;;;5025469;28;20297;-51
2020/12/13 19:30:59;;;;;;;1999.90;999.90;;;5.50;99.90;;;;;;5022911;28;20459;-50
2020/12/13 19:33:25;;;;;;;1999.90;999.90;;;5.50;99.90;;;;;;5019724;28;20469;-51
2020/12/13 19:35:50;;;;;;;1999.90;999.90;;;5.50;99.90;;;;;;5021409;28;20190;-51
2020/12/13 19:38:16;;;;;;;1999.90;999.90;;;5.50;99.90;;;;;;5026186;28;20198;-51
2020/12/13 19:40:42;;;;;;;1999.90;999.90;;;5.40;99.90;;;;;;5021003;28;20262;-51
2020/12/13 19:43:07;;;;;;;1999.90;999.90;;;5.50;99.90;;;;;;5022315;28;20207;-51
2020/12/13 19:45:36;;;;;;;1999.90;999.90;;;5.50;99.90;;;;;;5023807;28;20181;-51
2020/12/13 19:48:02;;;;;;;1999.90;999.90;;;5.50;99.90;;;;;;5025094;28;20191;-51
2020/12/13 19:50:28;;;;;;;1999.90;999.90;;;5.40;99.90;;;;;;5023858;28;20514;-51
2020/12/13 19:52:53;;;;;;;1999.90;999.90;;;5.40;99.90;;;;;;5023064;28;20618;-50
2020/12/13 19:55:20;;;;;;;1999.90;999.90;;;5.40;99.90;;;;;;5027806;28;20551;-51
2020/12/13 19:57:47;;;;;;;1999.90;999.90;;;5.30;99.90;;;;;;5024242;28;20190;-51
2020/12/13 20:00:14;;;;;;;1999.90;999.90;;;5.30;99.90;;;;;;5024394;28;20523;-51
2020/12/13 20:02:42;;;;;;;1999.90;999.90;;;5.30;99.90;;;;;;5024936;28;20537;-51
2020/12/13 20:05:08;;;;;;;1999.90;999.90;;;5.30;99.90;;;;;;5021808;28;20429;-51
2020/12/13 20:07:34;;;;;;;1999.90;999.90;;;5.30;99.90;;;;;;5025797;28;20934;-50
2020/12/13 20:10:00;;;;;;;1999.90;999.90;;;5.40;99.90;;;;;;5021859;28;20187;-51
2020/12/13 20:12:27;;;;;;;1999.90;999.90;;;5.30;99.90;;;;;;5019258;28;20513;-51
2020/12/13 21:06:14;;;;;;;1999.90;999.90;;;5.20;99.90;;;;;;5029561;28;20476;-51
2020/12/13 21:09:44;;;;;;;1999.90;999.90;;;5.20;99.90;;;;;;5027323;28;20482;-51
2020/12/13 21:16:43;;;;;;;1999.90;999.90;;;5.30;99.90;;;;;;5029966;28;20472;-51
2020/12/13 21:19:06;;;;;;;1999.90;999.90;;;5.30;99.90;;;;;;5020311;28;21072;-51
2020/12/13 21:21:40;;;;;;;1999.90;999.90;;;5.30;99.90;;;;;;5030101;28;20441;-51
2020/12/13 21:27:09;;;;;;;1999.90;999.90;;;5.30;99.90;;;;;;5031098;28;21102;-51
2020/12/13 21:30:02;;;;;;;1999.90;999.90;;;5.30;99.90;;;;;;5034807;28;20479;-51
2020/12/13 21:45:34;;;;;;;1999.90;999.90;;;5.20;99.90;;;;;;5027234;28;20592;-50
2020/12/13 21:48:14;;;;;;;1999.90;999.90;;;5.30;99.90;;;;;;5030232;28;20495;-51
2020/12/13 21:53:24;;;;;;;1999.90;999.90;;;5.20;99.90;;;;;;5017664;28;20444;-51
2020/12/13 21:58:15;;;;;;;1999.90;999.90;;;5.10;99.90;;;;;;5024464;28;20788;-51
2020/12/13 22:27:13;;;;;;;1999.90;999.90;;;4.90;99.90;;;;;;5017931;28;20438;-51
2020/12/13 22:29:38;;;;;;;1999.90;999.90;;;4.90;99.90;;;;;;5018935;28;21005;-51
2020/12/13 22:32:04;;;;;;;1999.90;999.90;;;4.90;99.90;;;;;;5025230;28;20193;-51
2020/12/13 22:34:29;;;;;;;1999.90;999.90;;;4.90;99.90;;;;;;5029931;28;20218;-51
2020/12/13 22:36:55;;;;;;;1999.90;999.90;;;5.00;99.90;;;;;;5032568;28;20198;-51
2020/12/13 22:39:21;;;;;;;1999.90;999.90;;;5.10;99.90;;;;;;5029458;28;20285;-51
2020/12/13 22:41:51;;;;;;;1999.90;999.90;;;5.10;99.90;;;;;;5024399;28;20740;-51
2020/12/13 22:44:17;;;;;;;1999.90;999.90;;;5.10;99.90;;;;;;5022821;28;20207;-51
2020/12/13 22:46:43;;;;;;;1999.90;999.90;;;5.00;99.90;;;;;;5028857;28;20476;-51
2020/12/13 22:49:08;;;;;;;1999.90;999.90;;;4.90;99.90;;;;;;5037901;28;20474;-51
2020/12/13 22:51:34;;;;;;;1999.90;999.90;;;4.90;99.90;;;;;;5028476;28;20190;-51
2020/12/13 22:53:59;;;;;;;1999.90;999.90;;;4.90;99.90;;;;;;5025394;28;20199;-51
2020/12/13 22:56:25;;;;;;;1999.90;999.90;;;4.90;99.90;;;;;;5023900;28;20217;-51
2020/12/13 22:58:51;;;;;;;1999.90;999.90;;;4.90;99.90;;;;;;5024785;28;20182;-51
2020/12/13 23:01:16;;;;;;;1999.90;999.90;;;4.90;99.90;;;;;;5022812;28;20211;-51
2020/12/13 23:03:42;;;;;;;1999.90;999.90;;;4.90;99.90;;;;;;5033012;28;20218;-51
2020/12/13 23:06:11;;;;;;;1999.90;999.90;;;4.90;99.90;;;;;;5027043;28;20187;-51
2020/12/13 23:08:36;;;;;;;1999.90;999.90;;;4.90;99.90;;;;;;5028132;28;20195;-51
2020/12/13 23:11:02;;;;;;;1999.90;999.90;;;4.90;99.90;;;;;;5026738;28;20441;-51
2020/12/13 23:13:28;;;;;;;1999.90;999.90;;;4.90;99.90;;;;;;5028445;28;20202;-51
2020/12/13 23:15:53;;;;;;;1999.90;999.90;;;4.90;99.90;;;;;;5030142;28;20185;-51
2020/12/13 23:18:19;;;;;;;1999.90;999.90;;;4.90;99.90;;;;;;5024798;28;20194;-51
2020/12/13 23:20:48;;;;;;;1999.90;999.90;;;5.00;99.90;;;;;;5025946;28;20246;-50
2020/12/13 23:23:14;;;;;;;1999.90;999.90;;;4.90;99.90;;;;;;5021870;28;20209;-50
2020/12/13 23:25:40;;;;;;;1999.90;999.90;;;5.00;99.90;;;;;;5025704;28;20879;-51
2020/12/13 23:28:07;;;;;;;1999.90;999.90;;;4.90;99.90;;;;;;5026264;28;20471;-51
